sensor_id;sensor_type;location;lat;lon;timestamp;pressure;altitude;pressure_sealevel;temperature
79756;BMP280;69239;50.678;12.280;2024-02-23T00:00:00;94950.16;;;11.51
79756;BMP280;69239;50.678;12.280;2024-02-23T00:02:25;94952.06;;;11.54
79756;BMP280;69239;50.678;12.280;2024-02-23T00:04:50;94938.13;;;11.53
79756;BMP280;69239;50.678;12.280;2024-02-23T00:07:15;94928.00;;;11.55
79756;BMP280;69239;50.678;12.280;2024-02-23T00:09:41;94925.72;;;11.54
79756;BMP280;69239;50.678;12.280;2024-02-23T00:12:06;94932.09;;;11.53
79756;BMP280;69239;50.678;12.280;2024-02-23T00:14:33;94926.84;;;11.49
79756;BMP280;69239;50.678;12.280;2024-02-23T00:17:01;94920.06;;;11.45
79756;BMP280;69239;50.678;12.280;2024-02-23T00:19:26;94917.06;;;11.46
79756;BMP280;69239;50.678;12.280;2024-02-23T00:21:51;94923.47;;;11.42
79756;BMP280;69239;50.678;12.280;2024-02-23T00:24:18;94934.75;;;11.42
79756;BMP280;69239;50.678;12.280;2024-02-23T00:26:45;94945.66;;;11.37
79756;BMP280;69239;50.678;12.280;2024-02-23T00:29:11;94947.53;;;11.37
79756;BMP280;69239;50.678;12.280;2024-02-23T00:31:39;94970.50;;;11.36
79756;BMP280;69239;50.678;12.280;2024-02-23T00:34:07;94972.38;;;11.32
79756;BMP280;69239;50.678;12.280;2024-02-23T00:36:41;94973.13;;;11.33
79756;BMP280;69239;50.678;12.280;2024-02-23T00:39:07;94966.34;;;11.28
79756;BMP280;69239;50.678;12.280;2024-02-23T00:41:36;94955.41;;;11.19
79756;BMP280;69239;50.678;12.280;2024-02-23T00:44:04;94968.97;;;11.24
79756;BMP280;69239;50.678;12.280;2024-02-23T00:46:30;94972.34;;;11.21
79756;BMP280;69239;50.678;12.280;2024-02-23T00:48:56;94988.88;;;11.18
79756;BMP280;69239;50.678;12.280;2024-02-23T00:51:21;95006.19;;;11.19
79756;BMP280;69239;50.678;12.280;2024-02-23T00:53:46;94998.28;;;11.16
79756;BMP280;69239;50.678;12.280;2024-02-23T00:56:12;95005.41;;;11.12
79756;BMP280;69239;50.678;12.280;2024-02-23T00:58:38;95012.19;;;11.09
79756;BMP280;69239;50.678;12.280;2024-02-23T01:01:03;95028.38;;;11.08
79756;BMP280;69239;50.678;12.280;2024-02-23T01:03:28;95008.34;;;10.89
79756;BMP280;69239;50.678;12.280;2024-02-23T01:05:54;95041.84;;;11.03
79756;BMP280;69239;50.678;12.280;2024-02-23T01:08:19;95043.75;;;10.99
79756;BMP280;69239;50.678;12.280;2024-02-23T01:10:45;95056.50;;;10.93
79756;BMP280;69239;50.678;12.280;2024-02-23T01:13:10;95045.63;;;10.94
79756;BMP280;69239;50.678;12.280;2024-02-23T01:15:35;95037.66;;;10.84
79756;BMP280;69239;50.678;12.280;2024-02-23T01:18:01;95054.97;;;10.88
79756;BMP280;69239;50.678;12.280;2024-02-23T01:20:26;95070.78;;;10.85
79756;BMP280;69239;50.678;12.280;2024-02-23T01:22:51;95080.13;;;10.82
79756;BMP280;69239;50.678;12.280;2024-02-23T01:25:16;95083.50;;;10.79
79756;BMP280;69239;50.678;12.280;2024-02-23T01:27:42;95075.59;;;10.76
79756;BMP280;69239;50.678;12.280;2024-02-23T01:30:09;95096.25;;;10.70
79756;BMP280;69239;50.678;12.280;2024-02-23T01:32:35;95093.97;;;10.72
79756;BMP280;69239;50.678;12.280;2024-02-23T01:35:02;95099.22;;;10.65
79756;BMP280;69239;50.678;12.280;2024-02-23T01:37:28;95117.63;;;10.65
79756;BMP280;69239;50.678;12.280;2024-02-23T01:39:53;95116.44;;;10.62
79756;BMP280;69239;50.678;12.280;2024-02-23T01:42:18;95112.72;;;10.60
79756;BMP280;69239;50.678;12.280;2024-02-23T01:44:43;95110.03;;;10.53
79756;BMP280;69239;50.678;12.280;2024-02-23T01:47:09;95120.16;;;10.51
79756;BMP280;69239;50.678;12.280;2024-02-23T01:49:34;95126.13;;;10.48
79756;BMP280;69239;50.678;12.280;2024-02-23T01:52:01;95125.00;;;10.42
79756;BMP280;69239;50.678;12.280;2024-02-23T01:54:27;95135.84;;;10.40
79756;BMP280;69239;50.678;12.280;2024-02-23T01:56:55;95147.84;;;10.38
79756;BMP280;69239;50.678;12.280;2024-02-23T01:59:22;95161.72;;;10.35
79756;BMP280;69239;50.678;12.280;2024-02-23T02:01:48;95165.09;;;10.31
79756;BMP280;69239;50.678;12.280;2024-02-23T02:04:13;95182.69;;;10.27
79756;BMP280;69239;50.678;12.280;2024-02-23T02:06:39;95190.53;;;10.20
79756;BMP280;69239;50.678;12.280;2024-02-23T02:09:04;95182.94;;;10.12
79756;BMP280;69239;50.678;12.280;2024-02-23T02:11:30;95212.97;;;10.11
79756;BMP280;69239;50.678;12.280;2024-02-23T02:13:55;95213.69;;;10.08
79756;BMP280;69239;50.678;12.280;2024-02-23T02:16:21;95215.06;;;9.98
79756;BMP280;69239;50.678;12.280;2024-02-23T02:18:46;95220.25;;;9.91
79756;BMP280;69239;50.678;12.280;2024-02-23T02:21:13;95220.22;;;9.87
79756;BMP280;69239;50.678;12.280;2024-02-23T02:23:38;95220.19;;;9.84
79756;BMP280;69239;50.678;12.280;2024-02-23T02:26:04;95232.84;;;9.78
79756;BMP280;69239;50.678;12.280;2024-02-23T02:28:29;95216.63;;;9.69
79756;BMP280;69239;50.678;12.280;2024-02-23T02:30:55;95217.72;;;9.64
79756;BMP280;69239;50.678;12.280;2024-02-23T02:33:20;95220.28;;;9.61
79756;BMP280;69239;50.678;12.280;2024-02-23T02:35:46;95222.91;;;9.57
79756;BMP280;69239;50.678;12.280;2024-02-23T02:38:11;95241.16;;;9.50
79756;BMP280;69239;50.678;12.280;2024-02-23T02:40:37;95248.25;;;9.46
79756;BMP280;69239;50.678;12.280;2024-02-23T02:43:02;95250.03;;;9.42
79756;BMP280;69239;50.678;12.280;2024-02-23T02:45:28;95245.06;;;9.33
79756;BMP280;69239;50.678;12.280;2024-02-23T02:47:53;95253.31;;;9.32
79756;BMP280;69239;50.678;12.280;2024-02-23T02:50:18;95263.28;;;9.23
79756;BMP280;69239;50.678;12.280;2024-02-23T02:52:44;95256.41;;;9.15
79756;BMP280;69239;50.678;12.280;2024-02-23T02:55:09;95262.75;;;9.14
79756;BMP280;69239;50.678;12.280;2024-02-23T02:57:34;95269.78;;;9.06
79756;BMP280;69239;50.678;12.280;2024-02-23T03:00:02;95268.25;;;9.01
79756;BMP280;69239;50.678;12.280;2024-02-23T03:02:29;95271.13;;;8.96
79756;BMP280;69239;50.678;12.280;2024-02-23T03:04:55;95274.00;;;8.88
79756;BMP280;69239;50.678;12.280;2024-02-23T03:07:20;95281.81;;;8.84
79756;BMP280;69239;50.678;12.280;2024-02-23T03:09:45;95285.47;;;8.80
79756;BMP280;69239;50.678;12.280;2024-02-23T03:12:11;95298.16;;;8.74
79756;BMP280;69239;50.678;12.280;2024-02-23T03:14:36;95299.53;;;8.68
79756;BMP280;69239;50.678;12.280;2024-02-23T03:17:05;95297.19;;;8.63
79756;BMP280;69239;50.678;12.280;2024-02-23T03:19:30;95317.00;;;8.60
79756;BMP280;69239;50.678;12.280;2024-02-23T03:21:57;95322.16;;;8.57
79756;BMP280;69239;50.678;12.280;2024-02-23T03:24:22;95311.16;;;8.48
79756;BMP280;69239;50.678;12.280;2024-02-23T03:26:47;95304.94;;;8.36
79756;BMP280;69239;50.678;12.280;2024-02-23T03:29:13;95321.50;;;8.40
79756;BMP280;69239;50.678;12.280;2024-02-23T03:31:38;95322.16;;;8.37
79756;BMP280;69239;50.678;12.280;2024-02-23T03:34:03;95335.59;;;8.32
79756;BMP280;69239;50.678;12.280;2024-02-23T03:36:29;95364.25;;;8.25
79756;BMP280;69239;50.678;12.280;2024-02-23T03:38:54;95361.56;;;8.22
79756;BMP280;69239;50.678;12.280;2024-02-23T03:41:19;95357.03;;;8.19
79756;BMP280;69239;50.678;12.280;2024-02-23T03:43:44;95365.13;;;8.13
79756;BMP280;69239;50.678;12.280;2024-02-23T03:46:10;95387.88;;;8.09
79756;BMP280;69239;50.678;12.280;2024-02-23T03:48:36;95364.56;;;8.04
79756;BMP280;69239;50.678;12.280;2024-02-23T03:51:04;95378.28;;;7.98
79756;BMP280;69239;50.678;12.280;2024-02-23T03:53:30;95382.66;;;7.94
79756;BMP280;69239;50.678;12.280;2024-02-23T03:55:56;95378.81;;;7.88
79756;BMP280;69239;50.678;12.280;2024-02-23T03:58:22;95362.47;;;7.75
79756;BMP280;69239;50.678;12.280;2024-02-23T04:00:47;95375.63;;;7.78
79756;BMP280;69239;50.678;12.280;2024-02-23T04:03:12;95395.72;;;7.74
79756;BMP280;69239;50.678;12.280;2024-02-23T04:05:38;95382.81;;;7.66
79756;BMP280;69239;50.678;12.280;2024-02-23T04:08:03;95379.66;;;7.60
79756;BMP280;69239;50.678;12.280;2024-02-23T04:10:29;95374.78;;;7.59
79756;BMP280;69239;50.678;12.280;2024-02-23T04:12:54;95393.84;;;7.59
79756;BMP280;69239;50.678;12.280;2024-02-23T04:15:19;95391.09;;;7.52
79756;BMP280;69239;50.678;12.280;2024-02-23T04:17:46;95392.88;;;7.48
79756;BMP280;69239;50.678;12.280;2024-02-23T04:20:11;95391.25;;;7.43
79756;BMP280;69239;50.678;12.280;2024-02-23T04:22:37;95381.22;;;7.30
79756;BMP280;69239;50.678;12.280;2024-02-23T04:25:03;95408.25;;;7.34
79756;BMP280;69239;50.678;12.280;2024-02-23T04:27:28;95403.91;;;7.26
79756;BMP280;69239;50.678;12.280;2024-02-23T04:29:53;95409.75;;;7.19
79756;BMP280;69239;50.678;12.280;2024-02-23T04:32:18;95436.31;;;7.21
79756;BMP280;69239;50.678;12.280;2024-02-23T04:34:44;95443.75;;;7.19
79756;BMP280;69239;50.678;12.280;2024-02-23T04:37:09;95454.78;;;7.12
79756;BMP280;69239;50.678;12.280;2024-02-23T04:39:34;95470.47;;;7.12
79756;BMP280;69239;50.678;12.280;2024-02-23T04:41:59;95474.94;;;7.12
79756;BMP280;69239;50.678;12.280;2024-02-23T04:44:25;95465.16;;;7.09
79756;BMP280;69239;50.678;12.280;2024-02-23T04:46:50;95454.59;;;7.05
79756;BMP280;69239;50.678;12.280;2024-02-23T04:49:15;95458.31;;;7.04
79756;BMP280;69239;50.678;12.280;2024-02-23T04:51:41;95468.78;;;7.04
79756;BMP280;69239;50.678;12.280;2024-02-23T04:54:06;95472.03;;;7.01
79756;BMP280;69239;50.678;12.280;2024-02-23T04:56:32;95467.88;;;7.00
79756;BMP280;69239;50.678;12.280;2024-02-23T04:58:58;95458.78;;;6.94
79756;BMP280;69239;50.678;12.280;2024-02-23T05:01:23;95439.59;;;6.90
79756;BMP280;69239;50.678;12.280;2024-02-23T05:03:49;95446.03;;;6.93
79756;BMP280;69239;50.678;12.280;2024-02-23T05:06:14;95456.56;;;6.96
79756;BMP280;69239;50.678;12.280;2024-02-23T05:08:41;95462.91;;;6.95
79756;BMP280;69239;50.678;12.280;2024-02-23T05:11:06;95471.84;;;6.94
79756;BMP280;69239;50.678;12.280;2024-02-23T05:13:31;95481.66;;;6.97
79756;BMP280;69239;50.678;12.280;2024-02-23T05:15:56;95479.69;;;6.94
79756;BMP280;69239;50.678;12.280;2024-02-23T05:18:22;95471.41;;;6.92
79756;BMP280;69239;50.678;12.280;2024-02-23T05:20:47;95479.69;;;6.94
79756;BMP280;69239;50.678;12.280;2024-02-23T05:23:14;95489.72;;;6.92
79756;BMP280;69239;50.678;12.280;2024-02-23T05:25:41;95500.63;;;6.94
79756;BMP280;69239;50.678;12.280;2024-02-23T05:28:06;95502.81;;;6.92
79756;BMP280;69239;50.678;12.280;2024-02-23T05:30:31;95511.94;;;6.98
79756;BMP280;69239;50.678;12.280;2024-02-23T05:32:57;95523.44;;;7.09
79756;BMP280;69239;50.678;12.280;2024-02-23T05:35:24;95523.63;;;7.16
79756;BMP280;69239;50.678;12.280;2024-02-23T05:37:49;95507.84;;;7.13
79756;BMP280;69239;50.678;12.280;2024-02-23T05:40:15;95511.03;;;7.06
79756;BMP280;69239;50.678;12.280;2024-02-23T05:42:40;95527.84;;;7.05
79756;BMP280;69239;50.678;12.280;2024-02-23T05:45:09;95531.09;;;7.02
79756;BMP280;69239;50.678;12.280;2024-02-23T05:47:39;95532.75;;;6.95
79756;BMP280;69239;50.678;12.280;2024-02-23T05:50:07;95553.78;;;6.98
79756;BMP280;69239;50.678;12.280;2024-02-23T05:52:33;95559.66;;;6.95
79756;BMP280;69239;50.678;12.280;2024-02-23T05:54:58;95560.34;;;6.92
79756;BMP280;69239;50.678;12.280;2024-02-23T05:57:25;95552.69;;;6.87
79756;BMP280;69239;50.678;12.280;2024-02-23T05:59:51;95552.28;;;6.85
79756;BMP280;69239;50.678;12.280;2024-02-23T06:02:16;95551.06;;;6.82
79756;BMP280;69239;50.678;12.280;2024-02-23T06:04:41;95569.91;;;6.88
79756;BMP280;69239;50.678;12.280;2024-02-23T06:07:08;95557.16;;;6.86
79756;BMP280;69239;50.678;12.280;2024-02-23T06:09:33;95555.53;;;6.82
79756;BMP280;69239;50.678;12.280;2024-02-23T06:11:58;95558.50;;;6.80
79756;BMP280;69239;50.678;12.280;2024-02-23T06:14:24;95581.69;;;6.82
79756;BMP280;69239;50.678;12.280;2024-02-23T06:16:49;95571.91;;;6.79
79756;BMP280;69239;50.678;12.280;2024-02-23T06:19:15;95569.06;;;6.84
79756;BMP280;69239;50.678;12.280;2024-02-23T06:21:41;95577.56;;;6.81
79756;BMP280;69239;50.678;12.280;2024-02-23T06:24:08;95586.28;;;6.85
79756;BMP280;69239;50.678;12.280;2024-02-23T06:26:34;95576.47;;;6.82
79756;BMP280;69239;50.678;12.280;2024-02-23T06:28:59;95578.19;;;6.90
79756;BMP280;69239;50.678;12.280;2024-02-23T06:31:26;95573.19;;;6.97
79756;BMP280;69239;50.678;12.280;2024-02-23T06:33:51;95588.28;;;7.04
79756;BMP280;69239;50.678;12.280;2024-02-23T06:36:20;95586.69;;;6.99
79756;BMP280;69239;50.678;12.280;2024-02-23T06:38:45;95582.13;;;6.96
79756;BMP280;69239;50.678;12.280;2024-02-23T06:41:11;95603.47;;;6.98
79756;BMP280;69239;50.678;12.280;2024-02-23T06:43:36;95579.41;;;6.93
79756;BMP280;69239;50.678;12.280;2024-02-23T06:46:07;95573.19;;;6.97
79756;BMP280;69239;50.678;12.280;2024-02-23T06:48:33;95584.28;;;6.94
79756;BMP280;69239;50.678;12.280;2024-02-23T06:50:58;95606.19;;;6.89
79756;BMP280;69239;50.678;12.280;2024-02-23T06:53:23;95634.84;;;6.98
79756;BMP280;69239;50.678;12.280;2024-02-23T06:55:49;95640.50;;;7.00
79756;BMP280;69239;50.678;12.280;2024-02-23T06:58:14;95631.50;;;6.98
79756;BMP280;69239;50.678;12.280;2024-02-23T07:00:43;95623.28;;;6.99
79756;BMP280;69239;50.678;12.280;2024-02-23T07:03:08;95639.84;;;7.03
79756;BMP280;69239;50.678;12.280;2024-02-23T07:05:33;95640.31;;;7.05
79756;BMP280;69239;50.678;12.280;2024-02-23T07:08:00;95640.50;;;7.00
79756;BMP280;69239;50.678;12.280;2024-02-23T07:10:25;95660.13;;;7.06
79756;BMP280;69239;50.678;12.280;2024-02-23T07:12:51;95668.41;;;7.08
79756;BMP280;69239;50.678;12.280;2024-02-23T07:15:21;95677.78;;;7.09
79756;BMP280;69239;50.678;12.280;2024-02-23T07:17:46;95688.69;;;7.11
79756;BMP280;69239;50.678;12.280;2024-02-23T07:20:13;95682.66;;;7.11
79756;BMP280;69239;50.678;12.280;2024-02-23T07:22:38;95689.75;;;7.22
79756;BMP280;69239;50.678;12.280;2024-02-23T07:25:05;95669.72;;;7.14
79756;BMP280;69239;50.678;12.280;2024-02-23T07:27:31;95688.25;;;7.21
79756;BMP280;69239;50.678;12.280;2024-02-23T07:29:56;95688.47;;;7.16
79756;BMP280;69239;50.678;12.280;2024-02-23T07:32:22;95688.13;;;7.18
79756;BMP280;69239;50.678;12.280;2024-02-23T07:34:48;95683.03;;;7.21
79756;BMP280;69239;50.678;12.280;2024-02-23T07:37:15;95679.97;;;7.19
79756;BMP280;69239;50.678;12.280;2024-02-23T07:39:41;95676.03;;;7.13
79756;BMP280;69239;50.678;12.280;2024-02-23T07:42:06;95686.59;;;7.17
79756;BMP280;69239;50.678;12.280;2024-02-23T07:44:34;95706.13;;;7.19
79756;BMP280;69239;50.678;12.280;2024-02-23T07:46:59;95722.59;;;7.20
79756;BMP280;69239;50.678;12.280;2024-02-23T07:49:24;95717.13;;;7.13
79756;BMP280;69239;50.678;12.280;2024-02-23T07:51:50;95720.50;;;7.13
79756;BMP280;69239;50.678;12.280;2024-02-23T07:54:15;95735.22;;;7.18
79756;BMP280;69239;50.678;12.280;2024-02-23T07:56:41;95723.88;;;7.14
79756;BMP280;69239;50.678;12.280;2024-02-23T07:59:06;95723.22;;;7.17
79756;BMP280;69239;50.678;12.280;2024-02-23T08:01:31;95724.00;;;7.17
79756;BMP280;69239;50.678;12.280;2024-02-23T08:03:57;95723.69;;;7.19
79756;BMP280;69239;50.678;12.280;2024-02-23T08:06:22;95717.22;;;7.16
79756;BMP280;69239;50.678;12.280;2024-02-23T08:08:47;95717.13;;;7.13
79756;BMP280;69239;50.678;12.280;2024-02-23T08:11:13;95735.75;;;7.23
79756;BMP280;69239;50.678;12.280;2024-02-23T08:13:39;95732.50;;;7.27
79756;BMP280;69239;50.678;12.280;2024-02-23T08:16:06;95722.56;;;7.32
79756;BMP280;69239;50.678;12.280;2024-02-23T08:18:34;95711.09;;;7.37
79756;BMP280;69239;50.678;12.280;2024-02-23T08:20:59;95712.75;;;7.41
79756;BMP280;69239;50.678;12.280;2024-02-23T08:23:27;95715.25;;;7.50
79756;BMP280;69239;50.678;12.280;2024-02-23T08:25:52;95720.59;;;7.54
79756;BMP280;69239;50.678;12.280;2024-02-23T08:28:18;95718.81;;;7.58
79756;BMP280;69239;50.678;12.280;2024-02-23T08:30:45;95741.84;;;7.64
79756;BMP280;69239;50.678;12.280;2024-02-23T08:33:11;95743.38;;;7.65
79756;BMP280;69239;50.678;12.280;2024-02-23T08:35:36;95750.22;;;7.70
79756;BMP280;69239;50.678;12.280;2024-02-23T08:38:01;95762.31;;;7.74
79756;BMP280;69239;50.678;12.280;2024-02-23T08:40:27;95759.50;;;7.79
79756;BMP280;69239;50.678;12.280;2024-02-23T08:42:52;95770.81;;;7.83
79756;BMP280;69239;50.678;12.280;2024-02-23T08:45:17;95782.25;;;7.91
79756;BMP280;69239;50.678;12.280;2024-02-23T08:47:43;95780.81;;;7.94
79756;BMP280;69239;50.678;12.280;2024-02-23T08:50:08;95775.59;;;7.94
79756;BMP280;69239;50.678;12.280;2024-02-23T08:52:34;95780.19;;;7.97
79756;BMP280;69239;50.678;12.280;2024-02-23T08:54:59;95783.00;;;8.04
79756;BMP280;69239;50.678;12.280;2024-02-23T08:57:25;95770.66;;;8.04
79756;BMP280;69239;50.678;12.280;2024-02-23T08:59:51;95769.13;;;8.03
79756;BMP280;69239;50.678;12.280;2024-02-23T09:02:16;95763.81;;;8.00
79756;BMP280;69239;50.678;12.280;2024-02-23T09:04:41;95751.22;;;8.05
79756;BMP280;69239;50.678;12.280;2024-02-23T09:07:06;95745.00;;;8.10
79756;BMP280;69239;50.678;12.280;2024-02-23T09:09:31;95740.19;;;8.12
79756;BMP280;69239;50.678;12.280;2024-02-23T09:11:57;95734.06;;;8.08
79756;BMP280;69239;50.678;12.280;2024-02-23T09:14:22;95739.50;;;8.15
79756;BMP280;69239;50.678;12.280;2024-02-23T09:16:47;95749.75;;;8.20
79756;BMP280;69239;50.678;12.280;2024-02-23T09:19:17;95734.53;;;8.26
79756;BMP280;69239;50.678;12.280;2024-02-23T09:21:42;95742.25;;;8.34
79756;BMP280;69239;50.678;12.280;2024-02-23T09:24:09;95760.94;;;8.61
79756;BMP280;69239;50.678;12.280;2024-02-23T09:26:35;95747.56;;;8.82
79756;BMP280;69239;50.678;12.280;2024-02-23T09:29:00;95735.47;;;9.09
79756;BMP280;69239;50.678;12.280;2024-02-23T09:31:25;95752.00;;;9.44
79756;BMP280;69239;50.678;12.280;2024-02-23T09:33:53;95751.75;;;9.88
79756;BMP280;69239;50.678;12.280;2024-02-23T09:36:20;95756.94;;;10.23
79756;BMP280;69239;50.678;12.280;2024-02-23T09:38:45;95772.97;;;10.37
79756;BMP280;69239;50.678;12.280;2024-02-23T09:41:31;95778.06;;;10.49
79756;BMP280;69239;50.678;12.280;2024-02-23T09:43:58;95777.72;;;10.51
79756;BMP280;69239;50.678;12.280;2024-02-23T09:46:25;95777.63;;;10.47
79756;BMP280;69239;50.678;12.280;2024-02-23T09:48:51;95785.63;;;10.51
79756;BMP280;69239;50.678;12.280;2024-02-23T09:51:16;95777.72;;;10.51
79756;BMP280;69239;50.678;12.280;2024-02-23T09:53:42;95770.63;;;10.32
79756;BMP280;69239;50.678;12.280;2024-02-23T09:56:09;95789.25;;;10.23
79756;BMP280;69239;50.678;12.280;2024-02-23T09:58:39;95774.00;;;10.13
79756;BMP280;69239;50.678;12.280;2024-02-23T10:01:06;95775.19;;;10.35
79756;BMP280;69239;50.678;12.280;2024-02-23T10:03:31;95796.13;;;10.51
79756;BMP280;69239;50.678;12.280;2024-02-23T10:05:58;95781.75;;;10.45
79756;BMP280;69239;50.678;12.280;2024-02-23T10:08:26;95774.00;;;10.52
79756;BMP280;69239;50.678;12.280;2024-02-23T10:10:51;95781.34;;;10.66
79756;BMP280;69239;50.678;12.280;2024-02-23T10:13:20;95794.16;;;10.67
79756;BMP280;69239;50.678;12.280;2024-02-23T10:15:48;95798.47;;;10.56
79756;BMP280;69239;50.678;12.280;2024-02-23T10:18:14;95796.69;;;10.41
79756;BMP280;69239;50.678;12.280;2024-02-23T10:20:40;95807.31;;;10.25
79756;BMP280;69239;50.678;12.280;2024-02-23T10:23:05;95807.72;;;10.08
79756;BMP280;69239;50.678;12.280;2024-02-23T10:25:33;95804.44;;;9.95
79756;BMP280;69239;50.678;12.280;2024-02-23T10:28:01;95817.88;;;9.90
79756;BMP280;69239;50.678;12.280;2024-02-23T10:30:27;95811.03;;;9.69
79756;BMP280;69239;50.678;12.280;2024-02-23T10:32:55;95822.34;;;9.54
79756;BMP280;69239;50.678;12.280;2024-02-23T10:35:22;95834.56;;;9.47
79756;BMP280;69239;50.678;12.280;2024-02-23T10:37:48;95838.91;;;9.39
79756;BMP280;69239;50.678;12.280;2024-02-23T10:40:17;95838.81;;;9.35
79756;BMP280;69239;50.678;12.280;2024-02-23T10:42:44;95840.50;;;9.28
79756;BMP280;69239;50.678;12.280;2024-02-23T10:45:14;95842.66;;;9.22
79756;BMP280;69239;50.678;12.280;2024-02-23T10:47:40;95842.72;;;9.10
79756;BMP280;69239;50.678;12.280;2024-02-23T10:50:06;95847.84;;;9.06
79756;BMP280;69239;50.678;12.280;2024-02-23T10:52:33;95856.00;;;9.01
79756;BMP280;69239;50.678;12.280;2024-02-23T10:55:00;95847.25;;;8.97
79756;BMP280;69239;50.678;12.280;2024-02-23T10:57:30;95844.91;;;8.92
79756;BMP280;69239;50.678;12.280;2024-02-23T10:59:57;95839.66;;;8.92
79756;BMP280;69239;50.678;12.280;2024-02-23T11:02:24;95824.41;;;8.82
79756;BMP280;69239;50.678;12.280;2024-02-23T11:04:51;95841.44;;;8.88
79756;BMP280;69239;50.678;12.280;2024-02-23T11:07:20;95838.81;;;8.88
79756;BMP280;69239;50.678;12.280;2024-02-23T11:09:52;95830.47;;;8.86
79756;BMP280;69239;50.678;12.280;2024-02-23T11:12:30;95834.78;;;8.79
79756;BMP280;69239;50.678;12.280;2024-02-23T11:15:00;95838.94;;;8.80
79756;BMP280;69239;50.678;12.280;2024-02-23T11:17:32;95829.88;;;8.77
79756;BMP280;69239;50.678;12.280;2024-02-23T11:20:02;95843.00;;;8.77
79756;BMP280;69239;50.678;12.280;2024-02-23T11:22:33;95838.34;;;8.70
79756;BMP280;69239;50.678;12.280;2024-02-23T11:25:10;95834.06;;;8.66
79756;BMP280;69239;50.678;12.280;2024-02-23T11:27:38;95836.31;;;8.64
79756;BMP280;69239;50.678;12.280;2024-02-23T11:30:09;95834.44;;;8.64
79756;BMP280;69239;50.678;12.280;2024-02-23T11:32:39;95835.38;;;8.72
79756;BMP280;69239;50.678;12.280;2024-02-23T11:35:06;95846.03;;;8.79
79756;BMP280;69239;50.678;12.280;2024-02-23T11:37:31;95841.47;;;8.76
79756;BMP280;69239;50.678;12.280;2024-02-23T11:40:00;95844.34;;;8.71
79756;BMP280;69239;50.678;12.280;2024-02-23T11:42:26;95838.06;;;8.60
79756;BMP280;69239;50.678;12.280;2024-02-23T11:44:52;95847.69;;;8.56
79756;BMP280;69239;50.678;12.280;2024-02-23T11:47:18;95836.34;;;8.52
79756;BMP280;69239;50.678;12.280;2024-02-23T11:49:44;95848.94;;;8.46
79756;BMP280;69239;50.678;12.280;2024-02-23T11:52:10;95845.13;;;8.43
79756;BMP280;69239;50.678;12.280;2024-02-23T11:54:37;95838.53;;;8.50
79756;BMP280;69239;50.678;12.280;2024-02-23T11:57:03;95847.00;;;8.59
79756;BMP280;69239;50.678;12.280;2024-02-23T11:59:28;95851.28;;;8.63
79756;BMP280;69239;50.678;12.280;2024-02-23T12:02:06;95834.78;;;8.63
79756;BMP280;69239;50.678;12.280;2024-02-23T12:04:32;95854.84;;;8.71
79756;BMP280;69239;50.678;12.280;2024-02-23T12:06:58;95846.03;;;8.79
79756;BMP280;69239;50.678;12.280;2024-02-23T12:09:23;95839.19;;;8.74
79756;BMP280;69239;50.678;12.280;2024-02-23T12:11:49;95826.66;;;8.68
79756;BMP280;69239;50.678;12.280;2024-02-23T12:14:15;95834.53;;;8.68
79756;BMP280;69239;50.678;12.280;2024-02-23T12:16:43;95829.09;;;8.61
79756;BMP280;69239;50.678;12.280;2024-02-23T12:19:08;95829.94;;;8.65
79756;BMP280;69239;50.678;12.280;2024-02-23T12:21:34;95833.69;;;8.64
79756;BMP280;69239;50.678;12.280;2024-02-23T12:24:04;95824.69;;;8.65
79756;BMP280;69239;50.678;12.280;2024-02-23T12:26:29;95814.91;;;8.62
79756;BMP280;69239;50.678;12.280;2024-02-23T12:29:00;95824.03;;;8.68
79756;BMP280;69239;50.678;12.280;2024-02-23T12:31:26;95814.31;;;8.68
79756;BMP280;69239;50.678;12.280;2024-02-23T12:33:51;95817.69;;;8.69
79756;BMP280;69239;50.678;12.280;2024-02-23T12:36:16;95821.84;;;8.70
79756;BMP280;69239;50.678;12.280;2024-02-23T12:38:42;95830.03;;;8.68
79756;BMP280;69239;50.678;12.280;2024-02-23T12:41:07;95826.91;;;8.63
79756;BMP280;69239;50.678;12.280;2024-02-23T12:43:33;95835.44;;;8.60
79756;BMP280;69239;50.678;12.280;2024-02-23T12:45:58;95831.72;;;8.61
79756;BMP280;69239;50.678;12.280;2024-02-23T12:48:23;95835.00;;;8.58
79756;BMP280;69239;50.678;12.280;2024-02-23T12:50:49;95835.56;;;8.51
79756;BMP280;69239;50.678;12.280;2024-02-23T12:53:37;95839.28;;;8.50
79756;BMP280;69239;50.678;12.280;2024-02-23T12:56:13;95836.59;;;8.47
79756;BMP280;69239;50.678;12.280;2024-02-23T12:58:42;95833.31;;;8.37
79756;BMP280;69239;50.678;12.280;2024-02-23T13:01:08;95831.19;;;8.27
79756;BMP280;69239;50.678;12.280;2024-02-23T13:03:35;95848.00;;;8.26
79756;BMP280;69239;50.678;12.280;2024-02-23T13:06:00;95833.94;;;8.19
79756;BMP280;69239;50.678;12.280;2024-02-23T13:08:26;95833.41;;;8.13
79756;BMP280;69239;50.678;12.280;2024-02-23T13:10:53;95841.16;;;8.09
79756;BMP280;69239;50.678;12.280;2024-02-23T13:13:19;95819.25;;;8.02
79756;BMP280;69239;50.678;12.280;2024-02-23T13:15:45;95825.16;;;7.99
79756;BMP280;69239;50.678;12.280;2024-02-23T13:18:10;95845.03;;;8.00
79756;BMP280;69239;50.678;12.280;2024-02-23T13:20:37;95842.81;;;8.02
79756;BMP280;69239;50.678;12.280;2024-02-23T13:23:02;95837.91;;;8.00
79756;BMP280;69239;50.678;12.280;2024-02-23T13:25:27;95847.31;;;8.01
79756;BMP280;69239;50.678;12.280;2024-02-23T13:27:52;95839.44;;;8.01
79756;BMP280;69239;50.678;12.280;2024-02-23T13:30:18;95828.75;;;7.94
79756;BMP280;69239;50.678;12.280;2024-02-23T13:32:43;95844.47;;;7.94
79756;BMP280;69239;50.678;12.280;2024-02-23T13:35:09;95837.81;;;7.97
79756;BMP280;69239;50.678;12.280;2024-02-23T13:37:34;95839.97;;;8.07
79756;BMP280;69239;50.678;12.280;2024-02-23T13:40:02;95838.16;;;8.23
79756;BMP280;69239;50.678;12.280;2024-02-23T13:42:31;95835.13;;;8.33
79756;BMP280;69239;50.678;12.280;2024-02-23T13:44:56;95826.13;;;8.34
79756;BMP280;69239;50.678;12.280;2024-02-23T13:47:22;95835.72;;;8.42
79756;BMP280;69239;50.678;12.280;2024-02-23T13:49:47;95840.38;;;8.33
79756;BMP280;69239;50.678;12.280;2024-02-23T13:52:12;95850.63;;;8.26
79756;BMP280;69239;50.678;12.280;2024-02-23T13:54:37;95845.53;;;8.18
79756;BMP280;69239;50.678;12.280;2024-02-23T13:57:03;95838.03;;;8.04
79756;BMP280;69239;50.678;12.280;2024-02-23T13:59:28;95845.66;;;8.09